Gilmour, Canada
Current Conditions -  °F | °C
As of 4:00 AM on Monday 20 Oct 2014 (Local Time) from CYTR Reporting Station
Broken Clouds Broken Clouds  
Wind Chill: 34°   Ceiling: 9600
Heat Index: 34°   Visibility: 15mi
Dew Point: 34°   Wind: 0mph
Humidity: 100%   Direction: NA
Pressure: 29.97"   Gusts: NA
Location:  44.82°N, 77.62°W
Report Text: CYTR 200800Z 00000KT 15SM BKN096 01/01 A2997 RMK AC7 SLP151
Loading
Personal Weather Stations






























Interactive Weather Map
Tropical Storm Tracking
New forecast layout! Learn more

10-Day Weather Forecast

Advertisements
Track Severe Weather on mobile